Flight Track Log - Related Links

Times and Time Zones

All times are in EDT time to prevent confusion due to time zone crossing. See the EGF3231 flight status page for this flight to view local times or setup timezone preferences in your user account.

Time Position Orientation Groundspeed Altitude Reporting Facility
EDT Latitude Longitude Course Direction KTS MPH feet Rate Location/Type
Sat 07:01:15 PM 35.2037 -101.6870 118° Southeast  Level FlightAware Approximate
Sat 07:02:50 PM 35.1711 -101.6108 92° East 237 273 6,100  Level Albuquerque Center
Sat 07:03:50 PM 35.1689 -101.5222 116° Southeast 261 300 8,300 1,900 Climbing Albuquerque Center
Sat 07:04:50 PM 35.1333 -101.4333 117° Southeast 267 307 9,900 1,200 Climbing Albuquerque Center
Sat 07:05:50 PM 35.0906 -101.3322 117° Southeast 300 345 10,700 1,150 Climbing Albuquerque Center
Sat 07:06:50 PM 35.0456 -101.2239 117° Southeast 340 391 12,200 1,400 Climbing Albuquerque Center
Sat 07:07:50 PM 34.9978 -101.1111 117° Southeast 358 412 13,500 1,200 Climbing Albuquerque Center
Sat 07:08:50 PM 34.9478 -100.9933 118° Southeast 375 432 14,600 1,179 Climbing Albuquerque Center
Sat 07:09:47 PM 34.8933 -100.8689 117° Southeast 387 445 15,800 1,333 Climbing Fort Worth Center
Sat 07:10:47 PM 34.8422 -100.7478 117° Southeast 405 466 17,200 1,300 Climbing Fort Worth Center
Sat 07:11:47 PM 34.7914 -100.6272 118° Southeast 405 466 18,400 1,250 Climbing Fort Worth Center
Sat 07:12:47 PM 34.7381 -100.5039 117° Southeast 405 466 19,700 1,050 Climbing Fort Worth Center
Sat 07:13:47 PM 34.6847 -100.3781 118° Southeast 405 466 20,500 900 Climbing Fort Worth Center
Sat 07:14:47 PM 34.6272 -100.2475 119° Southeast 416 479 21,500 992 Climbing Fort Worth Center
Sat 07:15:48 PM 34.5697 -100.1194 118° Southeast 428 493 22,500 992 Climbing Fort Worth Center
Sat 07:16:48 PM 34.5119 -99.9867 117° Southeast 433 498 23,500 1,008 Climbing Fort Worth Center
Sat 07:17:47 PM 34.4561 -99.8539 119° Southeast 440 506 24,500 1,000 Climbing Fort Worth Center
Sat 07:18:48 PM 34.3961 -99.7214 117° Southeast 440 506 25,500 893 Climbing Fort Worth Center
Sat 07:19:48 PM 34.3500 -99.6119 118° Southeast 440 506 26,300 1,000 Climbing Fort Worth Center
Sat 07:20:48 PM 34.2858 -99.4669 118° Southeast 440 506 27,500 1,550 Climbing Fort Worth Center
Sat 07:21:48 PM 34.2294 -99.3400 119° Southeast 433 498 29,400 1,750 Climbing Fort Worth Center
Sat 07:22:48 PM 34.1747 -99.2208 121° Southeast 427 491 31,000 807 Climbing Fort Worth Center
Sat 07:23:47 PM 34.1058 -99.0839 125° Southeast 421 484 31,000  Level Fort Worth Center
Sat 07:24:48 PM 34.0344 -98.9600 127° Southeast 445 512 31,000  Level Fort Worth Center
Sat 07:25:47 PM 33.9586 -98.8383 112° Southeast 457 526 31,000 -655 Level Fort Worth Center
Sat 07:26:47 PM 33.9081 -98.6897 113° Southeast 463 533 29,700 -1,650 Descending Fort Worth Center
Sat 07:27:47 PM 33.8614 -98.5592 121° Southeast 469 540 27,700 -2,400 Descending Fort Worth Center
Sat 07:28:47 PM 33.7936 -98.4258 119° Southeast 469 540 24,900 -2,700 Descending Fort Worth Center
Sat 07:29:47 PM 33.7278 -98.2850 115° Southeast 469 540 22,300 -2,550 Descending Fort Worth Center
Sat 07:30:47 PM 33.6744 -98.1497 118° Southeast 464 534 19,800 4,350 Descending Fort Worth Center
Sat 07:31:47 PM 33.6189 -98.0222 116° Southeast 442 509 31,000 -2,600 Climbing Fort Worth Center
Sat 07:32:47 PM 33.5672 -97.8972 118° Southeast 422 486 14,600 -10,959 Descending Fort Worth Center
Sat 07:33:25 PM 33.5328 -97.8181 133° Southeast 400 460 13,100 -2,203 Descending FAA TRACON SMA TRACON (SMA)
Sat 07:34:06 PM 33.4844 -97.7567 136° Southeast 361 415 11,700 -1,950 Descending FAA TRACON SMA TRACON (SMA)
Sat 07:34:45 PM 33.4375 -97.7031 137° Southeast 330 380 10,500 -1,443 Descending FAA TRACON SMA TRACON (SMA)
Sat 07:35:25 PM 33.3994 -97.6603 136° Southeast 302 348 9,800 -1,185 Descending FAA TRACON SMA TRACON (SMA)
Sat 07:36:06 PM 33.3614 -97.6161 134° Southeast 272 313 8,900 -1,390 Descending FAA TRACON SMA TRACON (SMA)
Sat 07:36:47 PM 33.3253 -97.5717 136° Southeast 271 312 7,900 -1,443 Descending FAA TRACON SMA TRACON (SMA)
Sat 07:37:25 PM 33.2919 -97.5325 112° Southeast 272 313 7,000 -1,215 Descending FAA TRACON SMA TRACON (SMA)
Sat 07:38:06 PM 33.2719 -97.4733 111° Southeast 276 318 6,300 -1,037 Descending FAA TRACON SMA TRACON (SMA)
Sat 07:38:46 PM 33.2528 -97.4150 121° Southeast 271 312 5,600 -900 Descending FAA TRACON SMA TRACON (SMA)
Sat 07:39:26 PM 33.2264 -97.3631 127° Southeast 263 303 5,100 -525 Descending FAA TRACON SMA TRACON (SMA)
Sat 07:40:06 PM 33.1997 -97.3208 125° Southeast 257 296 4,900 -75 Descending FAA TRACON SMA TRACON (SMA)
Sat 07:40:46 PM 33.1742 -97.2778 126° Southeast 260 299 5,000  Climbing FAA TRACON SMA TRACON (SMA)
Sat 07:41:27 PM 33.1419 -97.2242 127° Southeast 259 298 4,900 -525 Descending FAA TRACON SMA TRACON (SMA)
Sat 07:42:06 PM 33.1161 -97.1825 127° Southeast 255 293 4,300 -923 Descending FAA TRACON SMA TRACON (SMA)

Login

Don't have an account? Register now (free) for customized features, flight alerts, and more!